createdAt,value
2022-08-04T00:00:25.504Z,22.60
2022-08-04T00:03:17.172Z,22.40
2022-08-04T00:05:59.079Z,22.40
2022-08-04T00:08:50.189Z,22.50
2022-08-04T00:11:30.456Z,22.50
2022-08-04T00:14:12.734Z,22.20
2022-08-04T00:16:42.850Z,22.10
2022-08-04T00:19:19.286Z,22.10
2022-08-04T00:21:54.007Z,22.20
2022-08-04T00:24:23.113Z,22.20
2022-08-04T00:26:54.483Z,22.30
2022-08-04T00:29:22.947Z,22.20
2022-08-04T00:31:56.981Z,22.00
2022-08-04T00:34:30.617Z,22.00
2022-08-04T00:36:58.575Z,22.10
2022-08-04T00:39:27.155Z,22.10
2022-08-04T00:42:09.131Z,22.30
2022-08-04T00:45:10.780Z,22.40
2022-08-04T00:48:11.012Z,22.30
2022-08-04T00:50:43.743Z,22.40
2022-08-04T00:54:12.365Z,22.30
2022-08-04T00:57:03.995Z,22.10
2022-08-04T00:59:41.016Z,21.80
2022-08-04T01:02:26.411Z,21.80
2022-08-04T01:05:07.106Z,21.90
2022-08-04T01:08:01.506Z,21.90
2022-08-04T01:11:05.563Z,21.80
2022-08-04T01:14:17.630Z,21.90
2022-08-04T01:17:07.593Z,21.90
2022-08-04T01:19:54.185Z,21.90
2022-08-04T01:23:19.553Z,21.90
2022-08-04T01:26:42.105Z,21.80
2022-08-04T01:29:14.255Z,21.60
2022-08-04T01:32:17.477Z,21.70
2022-08-04T01:34:53.007Z,21.70
2022-08-04T01:38:21.138Z,21.60
2022-08-04T01:40:55.890Z,21.50
2022-08-04T01:43:24.475Z,21.50
2022-08-04T01:45:58.210Z,21.60
2022-08-04T01:48:27.465Z,21.70
2022-08-04T01:50:59.603Z,21.70
2022-08-04T01:53:33.099Z,21.60
2022-08-04T01:56:02.577Z,21.60
2022-08-04T01:58:33.267Z,21.50
2022-08-04T02:01:11.451Z,21.30
2022-08-04T02:04:21.602Z,21.20
2022-08-04T02:06:50.304Z,21.10
2022-08-04T02:09:55.221Z,20.90
2022-08-04T02:12:42.811Z,21.00
2022-08-04T02:15:24.895Z,21.00
2022-08-04T02:18:04.881Z,21.10
2022-08-04T02:20:35.706Z,21.10
2022-08-04T02:23:10.951Z,21.20
2022-08-04T02:25:48.092Z,21.10
2022-08-04T02:28:48.100Z,21.00
2022-08-04T02:31:50.078Z,20.90
2022-08-04T02:34:48.661Z,21.00
2022-08-04T02:37:18.110Z,20.90
2022-08-04T02:39:49.484Z,20.80
2022-08-04T02:42:17.655Z,20.80
2022-08-04T02:44:50.935Z,20.90
2022-08-04T02:47:22.695Z,21.00
2022-08-04T02:49:52.943Z,21.00
2022-08-04T02:52:21.200Z,21.00
2022-08-04T02:54:53.858Z,21.00
2022-08-04T02:57:27.020Z,21.00
2022-08-04T03:00:14.363Z,20.90
2022-08-04T03:03:34.976Z,20.90
2022-08-04T03:06:13.618Z,20.90
2022-08-04T03:09:13.987Z,20.80
2022-08-04T03:12:46.024Z,20.70
2022-08-04T03:15:53.177Z,20.70
2022-08-04T03:19:10.713Z,20.80
2022-08-04T03:22:08.638Z,20.70
2022-08-04T03:25:15.665Z,20.60
2022-08-04T03:27:51.414Z,20.70
2022-08-04T03:30:53.056Z,20.70
2022-08-04T03:33:36.894Z,21.00
2022-08-04T03:36:47.134Z,20.60
2022-08-04T03:39:23.423Z,20.20
2022-08-04T03:43:07.219Z,20.10
2022-08-04T03:45:40.191Z,20.10
2022-08-04T03:48:24.804Z,20.10
2022-08-04T03:52:13.281Z,20.10
2022-08-04T03:55:16.951Z,20.20
2022-08-04T03:58:40.540Z,20.20
2022-08-04T04:02:06.550Z,20.20
2022-08-04T04:05:05.207Z,20.10
2022-08-04T04:08:28.894Z,20.10
2022-08-04T04:11:24.575Z,20.20
2022-08-04T04:14:21.526Z,20.30
2022-08-04T04:17:31.549Z,20.10
2022-08-04T04:20:19.663Z,20.20
2022-08-04T04:24:11.737Z,20.20
2022-08-04T04:27:08.127Z,20.20
2022-08-04T04:29:56.243Z,20.20
2022-08-04T04:32:32.116Z,20.20
2022-08-04T04:35:48.001Z,20.20
2022-08-04T04:38:49.871Z,20.40
2022-08-04T04:41:36.663Z,20.40
2022-08-04T04:44:48.336Z,20.50
2022-08-04T04:48:10.621Z,20.70
2022-08-04T04:51:08.660Z,21.00
2022-08-04T04:54:00.051Z,21.20
2022-08-04T04:56:47.138Z,21.40
2022-08-04T04:59:20.945Z,21.60
2022-08-04T05:02:17.332Z,21.80
2022-08-04T05:05:07.108Z,21.90
2022-08-04T05:07:55.814Z,22.20
2022-08-04T05:10:25.597Z,22.50
2022-08-04T05:14:38.767Z,22.80
2022-08-04T05:16:48.074Z,23.10
2022-08-04T05:19:41.074Z,23.20
2022-08-04T05:22:14.915Z,23.20
2022-08-04T05:24:46.308Z,23.10
2022-08-04T05:27:40.469Z,23.00
2022-08-04T05:30:09.289Z,23.00
2022-08-04T05:33:04.114Z,23.00
2022-08-04T05:36:16.949Z,23.30
2022-08-04T05:38:38.028Z,23.30
2022-08-04T05:41:06.611Z,23.60
2022-08-04T05:43:34.783Z,23.70
2022-08-04T05:46:02.902Z,23.80
2022-08-04T05:48:32.872Z,24.00
2022-08-04T05:51:01.800Z,24.20
2022-08-04T05:53:29.658Z,24.10
2022-08-04T05:55:59.558Z,24.30
2022-08-04T05:58:31.944Z,24.40
2022-08-04T06:01:01.481Z,24.50
2022-08-04T06:03:31.928Z,24.60
2022-08-04T06:05:59.847Z,24.80
2022-08-04T06:08:27.186Z,24.80
2022-08-04T06:10:58.038Z,24.80
2022-08-04T06:13:50.911Z,24.80
2022-08-04T06:16:30.036Z,25.10
2022-08-04T06:20:00.270Z,25.40
2022-08-04T06:22:03.582Z,25.50
2022-08-04T06:24:33.229Z,25.30
2022-08-04T06:27:00.780Z,25.40
2022-08-04T06:29:41.226Z,25.50
2022-08-04T06:32:40.010Z,25.90
2022-08-04T06:35:10.306Z,26.10
2022-08-04T06:37:42.580Z,26.40
2022-08-04T06:40:31.374Z,26.30
2022-08-04T06:43:07.025Z,26.50
2022-08-04T06:45:37.709Z,26.50
2022-08-04T06:48:06.864Z,26.30
2022-08-04T06:51:33.340Z,26.20
2022-08-04T06:53:27.490Z,26.30
2022-08-04T06:55:57.449Z,26.60
2022-08-04T06:58:25.612Z,26.80
2022-08-04T07:00:54.963Z,27.10
2022-08-04T07:03:22.710Z,27.10
2022-08-04T07:05:52.100Z,27.00
2022-08-04T07:08:20.995Z,26.90
2022-08-04T07:10:48.906Z,26.70
2022-08-04T07:13:17.148Z,26.80
2022-08-04T07:15:48.667Z,27.20
2022-08-04T07:18:16.338Z,27.20
2022-08-04T07:20:45.693Z,27.20
2022-08-04T07:23:17.751Z,27.30
2022-08-04T07:26:11.350Z,27.40
2022-08-04T07:28:40.802Z,27.30
2022-08-04T07:31:33.382Z,27.60
2022-08-04T07:34:16.778Z,27.90
2022-08-04T07:36:55.334Z,28.20
2022-08-04T07:39:28.438Z,28.50
2022-08-04T07:41:58.705Z,28.80
2022-08-04T07:44:26.427Z,29.00
2022-08-04T07:46:53.755Z,29.00
2022-08-04T07:49:52.100Z,29.00
2022-08-04T07:52:09.044Z,29.00
2022-08-04T07:54:36.460Z,29.00
2022-08-04T07:57:03.825Z,28.90
2022-08-04T07:59:31.358Z,28.90
2022-08-04T08:02:02.568Z,29.00
2022-08-04T08:04:30.475Z,29.20
2022-08-04T08:06:58.802Z,29.40
2022-08-04T08:09:26.224Z,29.40
2022-08-04T08:12:35.578Z,29.70
2022-08-04T08:14:43.323Z,29.60
2022-08-04T08:17:10.377Z,29.80
2022-08-04T08:19:38.439Z,29.90
2022-08-04T08:22:05.823Z,29.90
2022-08-04T08:24:37.137Z,30.10
2022-08-04T08:27:05.302Z,30.30
2022-08-04T08:29:35.526Z,30.60
2022-08-04T08:32:08.071Z,30.80
2022-08-04T08:34:37.333Z,30.90
2022-08-04T08:37:19.266Z,31.00
2022-08-04T08:40:08.431Z,30.70
2022-08-04T08:44:05.462Z,30.80
2022-08-04T08:46:49.716Z,30.80
2022-08-04T08:50:10.669Z,30.70
2022-08-04T08:53:02.194Z,31.00
2022-08-04T08:56:08.262Z,31.10
2022-08-04T08:58:47.197Z,31.00
2022-08-04T09:01:53.893Z,31.40
2022-08-04T09:04:36.020Z,31.70
2022-08-04T09:07:37.726Z,31.90
2022-08-04T09:10:36.481Z,32.10
2022-08-04T09:13:10.875Z,32.20
2022-08-04T09:16:17.810Z,32.50
2022-08-04T09:19:05.629Z,32.60
2022-08-04T09:21:40.407Z,32.50
2022-08-04T09:24:35.906Z,32.90
2022-08-04T09:27:32.620Z,33.00
2022-08-04T09:30:08.120Z,33.20
2022-08-04T09:33:44.683Z,33.40
2022-08-04T09:36:41.528Z,33.70
2022-08-04T09:39:20.460Z,33.90
2022-08-04T09:42:18.303Z,34.60
2022-08-04T09:45:06.111Z,34.80
2022-08-04T09:47:59.511Z,35.10
2022-08-04T09:50:49.938Z,35.30
2022-08-04T09:53:57.988Z,35.20
2022-08-04T09:56:55.180Z,35.50
2022-08-04T09:59:58.439Z,35.40
2022-08-04T10:02:27.316Z,35.20
2022-08-04T10:04:56.995Z,35.50
2022-08-04T10:08:04.822Z,35.40
2022-08-04T10:10:49.516Z,35.60
2022-08-04T10:13:28.751Z,35.90
2022-08-04T10:16:47.738Z,35.70
2022-08-04T10:19:31.729Z,35.50
2022-08-04T10:22:30.603Z,36.10
2022-08-04T10:26:03.437Z,36.10
2022-08-04T10:28:21.474Z,36.40
2022-08-04T10:30:55.865Z,36.30
2022-08-04T10:33:33.247Z,36.30
2022-08-04T10:36:07.642Z,36.20
2022-08-04T10:39:07.642Z,36.20
2022-08-04T10:42:10.463Z,36.40
2022-08-04T10:44:49.247Z,36.30
2022-08-04T10:47:25.213Z,36.60
2022-08-04T10:50:00.032Z,36.90
2022-08-04T10:52:48.778Z,37.00
2022-08-04T10:55:21.890Z,37.10
2022-08-04T10:58:07.602Z,37.10
2022-08-04T11:00:39.217Z,37.00
2022-08-04T11:03:38.966Z,36.90
2022-08-04T11:06:06.668Z,37.00
2022-08-04T11:08:44.820Z,37.30
2022-08-04T11:12:02.056Z,37.50
2022-08-04T11:14:56.388Z,37.60
2022-08-04T11:17:33.707Z,37.70
2022-08-04T11:20:33.571Z,37.80
2022-08-04T11:23:10.960Z,38.00
2022-08-04T11:25:52.045Z,37.80
2022-08-04T11:28:43.243Z,37.90
2022-08-04T11:31:26.316Z,37.90
2022-08-04T11:34:18.737Z,38.00
2022-08-04T11:37:05.430Z,38.00
2022-08-04T11:40:31.352Z,37.60
2022-08-04T11:43:08.860Z,37.50
2022-08-04T11:45:42.429Z,37.60
2022-08-04T11:48:25.387Z,37.60
2022-08-04T11:50:55.075Z,37.60
2022-08-04T11:56:36.753Z,37.80
2022-08-04T11:59:04.758Z,37.90
2022-08-04T12:02:03.160Z,37.90
2022-08-04T12:05:06.716Z,38.20
2022-08-04T12:08:07.641Z,38.30
2022-08-04T12:11:21.288Z,38.20
2022-08-04T12:14:26.617Z,38.10
2022-08-04T12:17:01.075Z,38.50
2022-08-04T12:20:03.120Z,38.60
2022-08-04T12:22:31.516Z,38.80
2022-08-04T12:25:09.370Z,39.10
2022-08-04T12:27:48.257Z,39.00
2022-08-04T12:31:02.138Z,39.10
2022-08-04T12:34:02.820Z,39.20
2022-08-04T12:36:45.774Z,39.00
2022-08-04T12:39:23.436Z,39.00
2022-08-04T12:42:08.098Z,39.10
2022-08-04T12:44:39.333Z,39.20
2022-08-04T12:47:26.860Z,39.20
2022-08-04T12:50:04.153Z,39.30
2022-08-04T12:53:01.083Z,39.20
2022-08-04T12:55:33.596Z,39.10
2022-08-04T12:58:03.671Z,38.70
2022-08-04T13:00:41.231Z,38.30
2022-08-04T13:03:16.995Z,38.60
2022-08-04T13:05:45.526Z,39.00
2022-08-04T13:08:13.881Z,39.10
2022-08-04T13:10:46.728Z,38.30
2022-08-04T13:13:25.151Z,38.00
2022-08-04T13:16:07.711Z,38.10
2022-08-04T13:18:42.858Z,38.50
2022-08-04T13:21:19.877Z,38.50
2022-08-04T13:24:10.704Z,39.00
2022-08-04T13:26:55.624Z,39.40
2022-08-04T13:30:00.084Z,39.50
2022-08-04T13:32:28.983Z,39.30
2022-08-04T13:35:01.063Z,39.30
2022-08-04T13:37:51.596Z,39.30
2022-08-04T13:40:23.845Z,39.10
2022-08-04T13:42:56.272Z,39.20
2022-08-04T13:45:24.953Z,38.90
2022-08-04T13:48:31.938Z,38.40
2022-08-04T13:51:07.317Z,38.60
2022-08-04T13:53:41.222Z,38.60
2022-08-04T13:56:11.465Z,38.80
2022-08-04T13:58:46.824Z,38.80
2022-08-04T14:01:20.670Z,38.90
2022-08-04T14:04:25.723Z,39.30
2022-08-04T14:07:01.793Z,39.10
2022-08-04T14:09:35.446Z,39.00
2022-08-04T14:12:38.910Z,39.10
2022-08-04T14:15:01.204Z,38.90
2022-08-04T14:17:30.000Z,39.00
2022-08-04T14:20:03.804Z,39.20
2022-08-04T14:22:37.060Z,39.10
2022-08-04T14:25:17.798Z,38.90
2022-08-04T14:27:53.605Z,39.30
2022-08-04T14:30:36.183Z,39.20
2022-08-04T14:34:02.598Z,39.00
2022-08-04T14:36:01.518Z,38.80
2022-08-04T14:39:00.278Z,38.70
2022-08-04T14:41:32.624Z,38.60
2022-08-04T14:44:03.789Z,38.40
2022-08-04T14:46:36.542Z,38.30
2022-08-04T14:49:13.283Z,38.50
2022-08-04T14:51:51.430Z,38.70
2022-08-04T14:54:35.581Z,38.80
2022-08-04T14:57:06.340Z,39.00
2022-08-04T15:00:00.512Z,39.00
2022-08-04T15:02:29.736Z,39.00
2022-08-04T15:04:57.876Z,39.20
2022-08-04T15:07:25.721Z,39.00
2022-08-04T15:09:53.034Z,38.80
2022-08-04T15:12:21.041Z,38.80
2022-08-04T15:14:48.299Z,38.90
2022-08-04T15:17:30.265Z,38.90
2022-08-04T15:19:58.028Z,38.90
2022-08-04T15:22:25.330Z,38.90
2022-08-04T15:24:55.360Z,39.30
2022-08-04T15:27:28.615Z,39.30
2022-08-04T15:30:02.252Z,39.20
2022-08-04T15:32:35.019Z,39.10
2022-08-04T15:35:30.793Z,39.00
2022-08-04T15:38:15.044Z,39.00
2022-08-04T15:40:57.425Z,38.70
2022-08-04T15:43:45.458Z,38.90
2022-08-04T15:46:43.135Z,39.10
2022-08-04T15:49:20.428Z,39.20
2022-08-04T15:51:47.499Z,39.00
2022-08-04T15:54:23.343Z,39.30
2022-08-04T15:57:02.150Z,38.80
2022-08-04T16:00:05.323Z,38.70
2022-08-04T16:02:32.786Z,38.90
2022-08-04T16:05:18.147Z,39.00
2022-08-04T16:08:10.060Z,38.80
2022-08-04T16:10:40.240Z,38.50
2022-08-04T16:13:16.910Z,38.30
2022-08-04T16:15:52.107Z,38.20
2022-08-04T16:18:31.384Z,38.10
2022-08-04T16:21:05.172Z,38.20
2022-08-04T16:23:56.853Z,38.30
2022-08-04T16:26:37.771Z,38.20
2022-08-04T16:29:23.532Z,37.90
2022-08-04T16:32:06.147Z,37.70
2022-08-04T16:34:53.918Z,37.60
2022-08-04T16:37:38.436Z,37.40
2022-08-04T16:40:37.551Z,37.20
2022-08-04T16:43:18.294Z,37.20
2022-08-04T16:45:58.912Z,37.00
2022-08-04T16:48:31.799Z,36.80
2022-08-04T16:51:23.923Z,36.60
2022-08-04T16:53:52.539Z,36.60
2022-08-04T16:56:33.055Z,36.60
2022-08-04T16:59:12.611Z,36.50
2022-08-04T17:01:51.792Z,36.50
2022-08-04T17:04:28.263Z,36.10
2022-08-04T17:07:01.790Z,35.90
2022-08-04T17:09:30.211Z,35.70
2022-08-04T17:11:58.817Z,35.70
2022-08-04T17:14:31.247Z,35.80
2022-08-04T17:17:01.122Z,36.10
2022-08-04T17:19:28.267Z,36.60
2022-08-04T17:22:04.693Z,37.10
2022-08-04T17:24:38.808Z,37.70
2022-08-04T17:28:19.630Z,37.70
2022-08-04T17:29:55.154Z,37.50
2022-08-04T17:32:23.381Z,37.40
2022-08-04T17:34:54.244Z,37.00
2022-08-04T17:37:53.300Z,36.60
2022-08-04T17:40:18.421Z,36.20
2022-08-04T17:44:05.156Z,35.90
2022-08-04T17:46:29.125Z,35.50
2022-08-04T17:49:08.273Z,35.00
2022-08-04T17:52:07.002Z,34.70
2022-08-04T17:54:40.358Z,34.30
2022-08-04T17:57:20.675Z,34.00
2022-08-04T17:59:59.957Z,34.00
2022-08-04T18:02:34.728Z,33.90
2022-08-04T18:05:11.604Z,33.90
2022-08-04T18:08:38.852Z,33.80
2022-08-04T18:13:28.887Z,33.60
2022-08-04T18:16:05.034Z,33.50
2022-08-04T18:18:32.980Z,33.40
2022-08-04T18:21:02.893Z,33.20
2022-08-04T18:23:32.906Z,33.00
2022-08-04T18:26:01.811Z,32.80
2022-08-04T18:28:33.279Z,32.70
2022-08-04T18:31:02.023Z,32.50
2022-08-04T18:33:39.671Z,32.30
2022-08-04T18:36:33.573Z,32.30
2022-08-04T18:38:58.621Z,32.20
2022-08-04T18:41:28.243Z,31.90
2022-08-04T18:43:56.933Z,31.60
2022-08-04T18:46:27.340Z,31.50
2022-08-04T18:48:57.152Z,31.40
2022-08-04T18:51:30.755Z,31.50
2022-08-04T18:57:25.197Z,31.50
2022-08-04T18:59:32.470Z,31.50
2022-08-04T19:02:12.792Z,31.10
2022-08-04T19:04:44.815Z,30.90
2022-08-04T19:07:33.717Z,30.70
2022-08-04T19:10:04.554Z,30.60
2022-08-04T19:12:32.502Z,30.60
2022-08-04T19:15:10.793Z,30.60
2022-08-04T19:17:54.297Z,30.50
2022-08-04T19:20:26.768Z,30.30
2022-08-04T19:24:28.468Z,30.10
2022-08-04T19:28:34.178Z,30.20
2022-08-04T19:31:04.726Z,30.30
2022-08-04T19:33:58.513Z,30.30
2022-08-04T19:36:28.490Z,30.30
2022-08-04T19:38:57.798Z,30.20
2022-08-04T19:41:26.525Z,30.10
2022-08-04T19:43:54.678Z,30.00
2022-08-04T19:46:24.777Z,29.90
2022-08-04T19:48:59.636Z,29.80
2022-08-04T19:51:33.626Z,29.80
2022-08-04T19:54:02.758Z,29.70
2022-08-04T19:56:40.500Z,29.90
2022-08-04T19:59:10.256Z,29.70
2022-08-04T20:01:44.826Z,29.60
2022-08-04T20:04:15.840Z,29.60
2022-08-04T20:06:43.744Z,29.50
2022-08-04T20:09:25.801Z,29.50
2022-08-04T20:11:58.337Z,29.40
2022-08-04T20:14:32.597Z,29.20
2022-08-04T20:17:02.791Z,29.10
2022-08-04T20:19:30.333Z,28.80
2022-08-04T20:21:58.280Z,28.70
2022-08-04T20:24:37.791Z,28.60
2022-08-04T20:27:16.158Z,28.60
2022-08-04T20:29:50.982Z,28.60
2022-08-04T20:32:22.136Z,28.70
2022-08-04T20:34:52.150Z,28.70
2022-08-04T20:37:23.214Z,28.60
2022-08-04T20:40:05.175Z,28.60
2022-08-04T20:42:34.045Z,28.70
2022-08-04T20:45:02.261Z,28.60
2022-08-04T20:47:35.182Z,28.60
2022-08-04T20:50:07.944Z,28.50
2022-08-04T20:52:37.242Z,28.40
2022-08-04T20:55:06.840Z,28.20
2022-08-04T20:57:49.795Z,28.10
2022-08-04T21:00:29.750Z,28.00
2022-08-04T21:03:00.623Z,27.90
2022-08-04T21:05:28.851Z,27.90
2022-08-04T21:07:58.735Z,27.90
2022-08-04T21:10:26.492Z,27.90
2022-08-04T21:12:54.966Z,27.80
2022-08-04T21:15:26.209Z,27.80
2022-08-04T21:18:13.920Z,27.80
2022-08-04T21:20:43.157Z,27.90
2022-08-04T21:23:10.506Z,27.90
2022-08-04T21:28:25.672Z,27.70
2022-08-04T21:30:55.092Z,27.80
2022-08-04T21:33:43.925Z,27.90
2022-08-04T21:36:13.918Z,27.90
2022-08-04T21:38:41.945Z,27.80
2022-08-04T21:41:20.421Z,27.70
2022-08-04T21:43:52.495Z,27.60
2022-08-04T21:46:20.230Z,27.60
2022-08-04T21:48:48.688Z,27.50
2022-08-04T21:52:00.636Z,27.50
2022-08-04T21:54:14.873Z,27.60
2022-08-04T21:59:31.220Z,27.00
2022-08-04T22:02:00.829Z,26.90
2022-08-04T22:04:30.079Z,27.00
2022-08-04T22:06:57.296Z,27.20
2022-08-04T22:09:24.229Z,27.20
2022-08-04T22:11:55.856Z,27.10
2022-08-04T22:14:29.039Z,26.80
2022-08-04T22:16:57.034Z,27.00
2022-08-04T22:19:39.633Z,27.00
2022-08-04T22:22:12.634Z,27.10
2022-08-04T22:24:52.144Z,27.30
2022-08-04T22:27:39.352Z,27.50
2022-08-04T22:30:13.344Z,27.50
2022-08-04T22:32:44.345Z,27.30
2022-08-04T22:35:36.190Z,27.20
2022-08-04T22:38:06.690Z,27.00
2022-08-04T22:40:38.708Z,26.90
2022-08-04T22:43:31.299Z,26.80
2022-08-04T22:45:52.764Z,26.70
2022-08-04T22:48:20.677Z,26.90
2022-08-04T22:50:49.719Z,26.90
2022-08-04T22:53:18.059Z,27.10
2022-08-04T22:55:57.454Z,27.10
2022-08-04T22:58:32.566Z,26.80
2022-08-04T23:01:00.374Z,26.60
2022-08-04T23:03:37.108Z,26.60
2022-08-04T23:06:11.687Z,26.60
2022-08-04T23:08:43.130Z,26.60
2022-08-04T23:11:14.755Z,26.60
2022-08-04T23:13:42.086Z,26.90
2022-08-04T23:16:10.530Z,26.80
2022-08-04T23:18:41.778Z,26.90
2022-08-04T23:21:11.057Z,26.90
2022-08-04T23:23:45.690Z,26.90
2022-08-04T23:26:27.605Z,26.90
2022-08-04T23:28:56.325Z,26.90
2022-08-04T23:31:24.710Z,27.00
2022-08-04T23:33:52.371Z,26.70
2022-08-04T23:36:29.637Z,26.30
2022-08-04T23:39:04.223Z,26.30
2022-08-04T23:41:51.403Z,26.10
2022-08-04T23:44:24.611Z,26.10
2022-08-04T23:47:04.558Z,26.10
2022-08-04T23:49:45.057Z,26.10
2022-08-04T23:52:27.990Z,26.30
2022-08-04T23:55:00.763Z,26.30
2022-08-04T23:58:02.142Z,26.30
